Time;durP1;ratioP1;P1;durP2;ratioP2;P2;SDS_P1;SDS_P2;PMS_P1;PMS_P2;Temp;Humidity;BMP_temperature;BMP_pressure;BME280_temperature;BME280_humidity;BME280_pressure;Samples;Min_cycle;Max_cycle;Signal;HPM_P1;HPM_P2
2022/09/26 00:01:50;;;;;;;3.60;1.58;;;11.30;99.90;;;;;;5072480;28;20553;-93
2022/09/26 00:04:22;;;;;;;4.15;1.80;;;11.30;99.90;;;;;;5082989;28;20045;-92
2022/09/26 00:06:48;;;;;;;7.10;2.05;;;11.30;99.90;;;;;;5072628;28;20458;-92
2022/09/26 00:09:16;;;;;;;5.95;1.90;;;11.20;99.90;;;;;;5054610;28;20048;-91
2022/09/26 00:11:43;;;;;;;4.15;2.05;;;11.20;99.90;;;;;;5054772;28;20048;-91
2022/09/26 00:14:13;;;;;;;7.15;2.03;;;11.20;99.90;;;;;;5054615;28;20513;-91
2022/09/26 00:16:40;;;;;;;10.25;1.85;;;11.20;99.90;;;;;;5072309;28;20094;-92
2022/09/26 00:19:06;;;;;;;4.07;1.73;;;11.30;99.90;;;;;;5070503;28;20044;-93
2022/09/26 00:21:32;;;;;;;4.50;1.70;;;11.20;99.90;;;;;;5054309;28;20496;-92
2022/09/26 00:23:59;;;;;;;6.05;2.20;;;11.20;99.90;;;;;;5071969;28;20076;-91
2022/09/26 00:26:26;;;;;;;6.55;1.70;;;11.20;99.90;;;;;;5072287;28;20044;-92
2022/09/26 00:28:53;;;;;;;7.03;1.95;;;11.20;99.90;;;;;;5071982;28;20036;-92
2022/09/26 00:31:30;;;;;;;6.10;1.63;;;11.20;99.90;;;;;;5054297;28;20537;-92
2022/09/26 00:33:56;;;;;;;3.78;1.52;;;11.10;99.90;;;;;;5072371;28;20040;-92
2022/09/26 00:36:22;;;;;;;12.85;1.80;;;11.20;99.90;;;;;;5072096;28;20409;-93
2022/09/26 00:38:48;;;;;;;3.47;1.50;;;11.10;99.90;;;;;;5054581;28;20045;-91
2022/09/26 00:41:15;;;;;;;3.85;1.55;;;11.10;99.90;;;;;;5072418;28;20049;-92
2022/09/26 00:43:45;;;;;;;5.35;1.70;;;11.10;99.90;;;;;;5058793;28;20048;-91
2022/09/26 00:46:36;;;;;;;6.05;1.92;;;11.10;99.90;;;;;;5076049;28;20405;-92
2022/09/26 00:49:13;;;;;;;4.25;1.85;;;11.10;99.90;;;;;;5074126;28;20085;-91
2022/09/26 00:51:42;;;;;;;4.63;1.88;;;11.10;99.90;;;;;;5072038;28;20060;-92
2022/09/26 00:54:10;;;;;;;6.57;1.60;;;11.10;99.90;;;;;;5076017;28;20102;-91
2022/09/26 00:56:38;;;;;;;7.00;1.65;;;11.10;99.90;;;;;;5075901;28;20041;-90
2022/09/26 00:59:16;;;;;;;4.60;2.10;;;11.10;99.90;;;;;;5076015;28;20099;-91
2022/09/26 01:01:42;;;;;;;7.47;2.00;;;11.20;99.90;;;;;;5088504;28;20057;-92
2022/09/26 01:04:09;;;;;;;7.45;2.00;;;11.10;99.90;;;;;;5075620;28;20052;-88
2022/09/26 01:06:35;;;;;;;6.72;1.65;;;11.10;99.90;;;;;;5057658;28;20060;-90
2022/09/26 01:09:07;;;;;;;7.40;2.15;;;11.20;99.90;;;;;;5057636;28;20101;-90
2022/09/26 01:11:35;;;;;;;7.38;2.40;;;11.10;99.90;;;;;;5058143;28;20521;-90
2022/09/26 01:14:01;;;;;;;9.05;2.22;;;11.10;99.90;;;;;;5075368;28;20040;-91
2022/09/26 01:16:27;;;;;;;7.32;2.15;;;11.10;99.90;;;;;;5076002;28;20048;-92
2022/09/26 01:18:53;;;;;;;7.88;2.58;;;11.10;99.90;;;;;;5050044;28;20398;-91
2022/09/26 01:21:34;;;;;;;7.45;2.50;;;11.10;99.90;;;;;;5056636;28;20068;-92
2022/09/26 01:24:28;;;;;;;7.35;2.42;;;11.10;99.90;;;;;;5058020;28;20036;-90
2022/09/26 01:26:53;;;;;;;6.75;2.92;;;11.10;99.90;;;;;;5057124;28;20055;-91
2022/09/26 01:29:37;;;;;;;4.38;2.45;;;11.10;99.90;;;;;;5057574;28;20052;-91
2022/09/26 01:35:24;;;;;;;9.43;3.03;;;11.20;99.90;;;;;;5074323;28;20079;-92
2022/09/26 01:38:12;;;;;;;8.05;2.60;;;11.20;99.90;;;;;;5090612;28;20044;-90
2022/09/26 01:41:06;;;;;;;8.40;2.60;;;11.20;99.90;;;;;;5081101;28;20049;-92
2022/09/26 01:44:03;;;;;;;10.05;2.72;;;11.20;99.90;;;;;;5075359;28;20043;-90
2022/09/26 01:46:50;;;;;;;5.97;2.38;;;11.20;99.90;;;;;;5057482;28;20048;-91
2022/09/26 01:49:39;;;;;;;5.15;2.30;;;11.20;99.90;;;;;;5074134;28;20646;-91
2022/09/26 01:52:42;;;;;;;6.38;2.30;;;11.20;99.90;;;;;;5070570;28;20076;-93
2022/09/26 01:55:24;;;;;;;5.97;2.38;;;11.20;99.90;;;;;;5071185;28;20051;-92
2022/09/26 01:57:52;;;;;;;6.57;2.53;;;11.20;99.90;;;;;;5074686;28;20490;-90
2022/09/26 02:00:18;;;;;;;7.03;2.60;;;11.30;99.90;;;;;;5056908;28;20041;-91
2022/09/26 02:02:49;;;;;;;6.40;2.38;;;11.20;99.90;;;;;;5056857;28;20040;-92
2022/09/26 02:05:37;;;;;;;6.82;2.97;;;11.20;99.90;;;;;;5074124;28;20040;-91
2022/09/26 02:08:13;;;;;;;5.38;2.65;;;11.20;99.90;;;;;;5052857;28;20524;-90
2022/09/26 02:10:47;;;;;;;8.15;2.72;;;11.20;99.90;;;;;;5074151;28;20048;-92
2022/09/26 02:13:19;;;;;;;7.32;3.13;;;11.20;99.90;;;;;;5057309;28;20044;-93
2022/09/26 02:15:51;;;;;;;5.97;3.10;;;11.20;99.90;;;;;;5088201;28;20129;-90
2022/09/26 02:18:27;;;;;;;7.85;3.10;;;11.20;99.90;;;;;;5074629;28;20047;-91
2022/09/26 02:21:02;;;;;;;7.55;3.42;;;11.20;99.90;;;;;;5069475;28;20078;-91
2022/09/26 02:23:28;;;;;;;8.55;3.17;;;11.20;99.90;;;;;;5056500;28;20117;-90
2022/09/26 02:25:53;;;;;;;4.30;3.10;;;11.20;99.90;;;;;;5073949;28;20485;-90
2022/09/26 02:28:21;;;;;;;8.40;2.63;;;11.20;99.90;;;;;;5055842;28;20079;-89
2022/09/26 02:30:48;;;;;;;7.63;3.53;;;11.20;99.90;;;;;;5040561;28;20120;-90
2022/09/26 02:33:15;;;;;;;7.30;3.30;;;11.20;99.90;;;;;;5081312;28;20044;-92
2022/09/26 02:35:54;;;;;;;4.03;2.95;;;11.30;99.90;;;;;;5051306;28;20049;-90
2022/09/26 02:38:25;;;;;;;7.07;3.50;;;11.30;99.90;;;;;;5082133;28;20076;-91
2022/09/26 02:41:12;;;;;;;8.63;3.40;;;11.30;99.90;;;;;;5074311;28;20150;-91
2022/09/26 02:43:49;;;;;;;11.70;4.03;;;11.30;99.90;;;;;;5071063;28;20036;-92
2022/09/26 02:46:45;;;;;;;10.30;4.00;;;11.30;99.90;;;;;;5072922;28;20047;-93
2022/09/26 02:49:35;;;;;;;6.97;2.80;;;11.30;99.90;;;;;;5056016;28;20131;-92
2022/09/26 02:52:31;;;;;;;7.13;3.58;;;11.30;99.90;;;;;;5066523;28;20450;-92
2022/09/26 02:55:20;;;;;;;6.30;3.17;;;11.30;99.90;;;;;;5063551;28;20423;-91
2022/09/26 02:58:19;;;;;;;8.30;4.07;;;11.20;99.90;;;;;;5055439;28;20440;-92
2022/09/26 03:00:54;;;;;;;8.35;4.03;;;11.10;99.90;;;;;;5055841;28;20398;-90
2022/09/26 03:03:32;;;;;;;8.80;3.90;;;11.10;99.90;;;;;;5058596;28;20083;-90
2022/09/26 03:05:59;;;;;;;8.13;4.90;;;11.00;99.90;;;;;;5056132;28;20050;-91
2022/09/26 03:08:29;;;;;;;10.63;5.13;;;11.00;99.90;;;;;;5070432;28;20044;-89
2022/09/26 03:10:57;;;;;;;6.93;4.63;;;11.00;99.90;;;;;;5055441;28;20428;-89
2022/09/26 03:13:24;;;;;;;9.43;4.68;;;10.90;99.90;;;;;;5055378;28;20410;-90
2022/09/26 03:15:55;;;;;;;8.85;4.35;;;10.90;99.90;;;;;;5072919;28;20105;-89
2022/09/26 03:18:27;;;;;;;10.57;5.03;;;10.90;99.90;;;;;;5075067;28;20570;-87
2022/09/26 03:20:53;;;;;;;9.50;5.25;;;10.80;99.90;;;;;;5062463;28;20379;-89
2022/09/26 03:23:24;;;;;;;11.02;5.53;;;10.80;99.90;;;;;;5072938;28;20474;-88
2022/09/26 03:26:07;;;;;;;7.95;5.03;;;10.80;99.90;;;;;;5071531;28;20445;-89
2022/09/26 03:28:33;;;;;;;9.32;5.22;;;10.70;99.90;;;;;;5071972;28;20127;-88
2022/09/26 03:30:59;;;;;;;9.60;5.75;;;10.80;99.90;;;;;;5072783;28;20476;-87
2022/09/26 03:33:25;;;;;;;13.35;5.75;;;10.70;99.90;;;;;;5073279;28;20044;-87
2022/09/26 03:35:51;;;;;;;14.73;5.68;;;10.60;99.90;;;;;;5055520;28;20120;-86
2022/09/26 03:38:16;;;;;;;13.68;6.25;;;10.70;99.90;;;;;;5056014;28;20075;-89
2022/09/26 03:40:42;;;;;;;16.73;6.55;;;10.60;99.90;;;;;;5064838;28;20162;-89
2022/09/26 03:43:09;;;;;;;13.63;7.53;;;10.60;99.90;;;;;;5055412;28;20045;-89
2022/09/26 03:45:35;;;;;;;14.32;7.10;;;10.50;99.90;;;;;;5062965;28;20072;-88
2022/09/26 03:48:02;;;;;;;12.68;6.90;;;10.50;99.90;;;;;;5073202;28;20494;-89
2022/09/26 03:50:27;;;;;;;13.65;6.90;;;10.50;99.90;;;;;;5055667;28;20074;-89
2022/09/26 03:52:53;;;;;;;18.25;8.45;;;10.50;99.90;;;;;;5045422;28;20072;-88
2022/09/26 03:55:19;;;;;;;21.77;7.97;;;10.50;99.90;;;;;;5080392;28;20045;-90
2022/09/26 03:57:44;;;;;;;14.18;8.30;;;10.40;99.90;;;;;;5054916;28;20040;-88
2022/09/26 04:00:11;;;;;;;10.73;7.53;;;10.40;99.90;;;;;;5087283;28;20092;-90
2022/09/26 04:02:36;;;;;;;20.20;8.57;;;10.40;99.90;;;;;;5072941;28;20056;-89
2022/09/26 04:05:03;;;;;;;14.80;7.65;;;10.40;99.90;;;;;;5054872;28;20045;-91
2022/09/26 04:07:28;;;;;;;15.38;8.52;;;10.40;99.90;;;;;;5080256;28;20397;-89
2022/09/26 04:09:54;;;;;;;22.65;8.88;;;10.40;99.90;;;;;;5072358;28;20039;-90
2022/09/26 04:12:20;;;;;;;15.25;8.50;;;10.40;99.90;;;;;;5057786;28;20045;-92
2022/09/26 04:14:45;;;;;;;17.15;9.45;;;10.50;99.90;;;;;;5071838;28;20051;-89
2022/09/26 04:17:12;;;;;;;17.90;9.20;;;10.40;99.90;;;;;;5072655;28;20105;-89
2022/09/26 04:19:39;;;;;;;16.23;9.27;;;10.50;99.90;;;;;;5054495;28;20055;-88
2022/09/26 04:22:07;;;;;;;16.92;8.80;;;10.40;99.90;;;;;;5054398;28;20521;-90
2022/09/26 04:24:33;;;;;;;14.43;8.20;;;10.40;99.90;;;;;;5056375;28;20060;-89
2022/09/26 04:26:59;;;;;;;17.60;9.52;;;10.40;99.90;;;;;;5072424;28;20517;-88
2022/09/26 04:29:26;;;;;;;14.48;8.95;;;10.40;99.90;;;;;;5050416;28;20051;-89
2022/09/26 04:31:52;;;;;;;18.73;10.73;;;10.40;99.90;;;;;;5057753;28;20048;-89
2022/09/26 04:34:19;;;;;;;19.73;9.43;;;10.30;99.90;;;;;;5054589;28;20382;-91
2022/09/26 04:36:45;;;;;;;23.25;10.98;;;10.30;99.90;;;;;;5054362;28;20052;-90
2022/09/26 04:39:10;;;;;;;20.30;10.82;;;10.30;99.90;;;;;;5072250;28;20047;-91
2022/09/26 04:41:36;;;;;;;23.67;11.48;;;10.30;99.90;;;;;;5072370;28;20041;-89
2022/09/26 04:44:02;;;;;;;21.52;9.73;;;10.30;99.90;;;;;;5054194;28;20047;-90
2022/09/26 04:46:29;;;;;;;17.45;9.93;;;10.30;99.90;;;;;;5072149;28;20410;-91
2022/09/26 04:48:57;;;;;;;14.82;9.60;;;10.30;99.90;;;;;;5076279;28;20064;-90
2022/09/26 04:51:24;;;;;;;24.83;11.60;;;10.30;99.90;;;;;;5054423;28;20448;-89
2022/09/26 04:53:51;;;;;;;18.60;9.00;;;10.20;99.90;;;;;;5070849;28;20040;-89
2022/09/26 04:56:19;;;;;;;17.48;10.40;;;10.30;99.90;;;;;;5072372;28;20460;-90
2022/09/26 04:58:45;;;;;;;17.92;10.20;;;10.30;99.90;;;;;;5070659;28;20120;-89
2022/09/26 05:01:14;;;;;;;21.75;11.60;;;10.30;99.90;;;;;;5071388;28;20045;-90
2022/09/26 05:03:40;;;;;;;17.05;10.88;;;10.20;99.90;;;;;;5037789;28;20076;-91
2022/09/26 05:06:08;;;;;;;16.05;10.70;;;10.20;99.90;;;;;;5038543;28;20063;-90
2022/09/26 05:08:39;;;;;;;16.73;9.52;;;10.20;99.90;;;;;;5066781;28;20040;-90
2022/09/26 05:11:05;;;;;;;;;;;10.20;99.90;;;;;;5054975;28;20045;-91
2022/09/26 05:13:31;;;;;;;20.98;11.02;;;10.20;99.90;;;;;;5066259;28;19997;-90
2022/09/26 05:16:01;;;;;;;16.52;9.13;;;10.20;99.90;;;;;;5078610;28;20493;-91
2022/09/26 05:18:28;;;;;;;19.48;9.82;;;10.20;99.90;;;;;;5080013;28;20410;-89
2022/09/26 05:20:55;;;;;;;12.98;9.35;;;10.10;99.90;;;;;;5019818;28;20053;-89
2022/09/26 05:26:43;;;;;;;16.23;9.93;;;10.10;99.90;;;;;;5065564;28;20202;-87
2022/09/26 05:29:09;;;;;;;17.38;9.95;;;10.10;99.90;;;;;;5059161;28;20483;-88
2022/09/26 05:31:38;;;;;;;16.75;9.30;;;10.10;99.90;;;;;;5022535;28;20049;-89
2022/09/26 05:34:09;;;;;;;19.00;10.48;;;10.00;99.90;;;;;;5038636;28;20083;-87
2022/09/26 05:36:35;;;;;;;18.48;11.05;;;10.00;99.90;;;;;;5039167;28;20044;-86
2022/09/26 05:39:02;;;;;;;20.52;10.02;;;10.00;99.90;;;;;;5038291;28;20186;-89
2022/09/26 05:41:32;;;;;;;20.05;10.48;;;10.00;99.90;;;;;;5056300;28;20088;-87
2022/09/26 05:43:58;;;;;;;14.73;9.40;;;10.00;99.90;;;;;;5056321;28;20094;-87
2022/09/26 05:46:27;;;;;;;14.98;9.20;;;10.00;99.90;;;;;;5038693;28;20068;-86
2022/09/26 05:49:13;;;;;;;16.42;9.90;;;9.90;99.90;;;;;;5034606;28;20093;-89
2022/09/26 05:51:48;;;;;;;19.33;9.55;;;9.90;99.90;;;;;;5017392;28;20057;-87
2022/09/26 06:01:33;;;;;;;17.77;9.48;;;9.90;99.90;;;;;;5034300;28;20049;-89
2022/09/26 06:08:08;;;;;;;16.73;10.02;;;9.80;99.90;;;;;;5040304;28;20040;-88
2022/09/26 06:18:14;;;;;;;16.17;8.82;;;9.80;99.90;;;;;;5038740;28;20315;-87
2022/09/26 06:20:40;;;;;;;19.98;9.25;;;9.90;99.90;;;;;;5033277;28;20057;-89
2022/09/26 06:27:49;;;;;;;20.25;9.30;;;9.80;99.90;;;;;;5085905;28;20040;-87
2022/09/26 06:48:46;;;;;;;11.75;6.18;;;9.80;99.90;;;;;;5034565;28;20050;-89
2022/09/26 06:51:14;;;;;;;9.45;5.15;;;9.80;99.90;;;;;;5033816;28;20049;-88
2022/09/26 06:53:41;;;;;;;12.23;5.70;;;9.80;99.90;;;;;;5034678;28;20045;-88
2022/09/26 06:56:07;;;;;;;13.05;5.28;;;9.80;99.90;;;;;;5032431;28;20372;-88
2022/09/26 06:58:33;;;;;;;11.38;6.18;;;9.80;99.90;;;;;;5033357;28;20064;-90
2022/09/26 07:01:14;;;;;;;11.30;5.65;;;9.70;99.90;;;;;;5036473;28;20048;-88
2022/09/26 07:03:39;;;;;;;7.47;5.40;;;9.70;99.90;;;;;;5031482;28;20053;-90
2022/09/26 07:06:06;;;;;;;13.63;5.55;;;9.70;99.90;;;;;;5032470;28;20068;-89
2022/09/26 07:08:31;;;;;;;12.57;5.07;;;9.70;99.90;;;;;;5033811;28;20065;-88
2022/09/26 07:11:00;;;;;;;7.55;5.57;;;9.70;99.90;;;;;;5033532;28;20052;-89
2022/09/26 07:13:28;;;;;;;7.45;4.35;;;9.70;99.90;;;;;;5017478;28;20152;-91
2022/09/26 07:15:57;;;;;;;12.93;5.38;;;9.70;99.90;;;;;;5033649;28;20053;-90
2022/09/26 07:33:04;;;;;;;8.43;4.85;;;9.70;99.90;;;;;;5033602;28;20120;-87
2022/09/26 07:40:03;;;;;;;6.97;5.13;;;9.70;99.90;;;;;;5043474;28;20060;-88
2022/09/26 07:42:28;;;;;;;11.43;6.43;;;9.70;99.90;;;;;;5017135;28;20049;-87
2022/09/26 07:44:54;;;;;;;11.52;6.60;;;9.70;99.90;;;;;;5034136;28;20041;-88
2022/09/26 07:50:13;;;;;;;14.13;6.53;;;9.70;99.90;;;;;;5015799;28;20049;-87
2022/09/26 07:52:43;;;;;;;11.10;6.28;;;9.70;99.90;;;;;;4985008;28;20091;-88
2022/09/26 07:55:11;;;;;;;12.88;6.30;;;9.80;99.90;;;;;;5000133;28;20124;-86
2022/09/26 07:57:37;;;;;;;11.70;6.28;;;9.80;99.90;;;;;;5016145;28;20099;-87
2022/09/26 08:00:11;;;;;;;8.95;5.30;;;9.80;99.90;;;;;;5016157;28;20085;-86
2022/09/26 08:02:41;;;;;;;13.82;5.88;;;9.90;99.90;;;;;;5033934;28;20042;-86
2022/09/26 08:05:11;;;;;;;10.32;4.90;;;10.00;99.90;;;;;;5016265;28;20136;-86
2022/09/26 08:07:37;;;;;;;13.50;5.47;;;10.00;99.90;;;;;;5033529;28;20499;-86
2022/09/26 08:13:44;;;;;;;11.98;5.78;;;10.20;99.90;;;;;;5033713;28;20399;-86
2022/09/26 08:16:10;;;;;;;12.10;5.35;;;10.20;99.90;;;;;;5033603;28;20045;-87
